Tiempo atmosférico en la estación meteorológica de Elgoibar, Gipuzkoa (120 m.)



Fecha
DESCASC
Temp. máxima en grados centígrados (hora)
DESCASC
Temp. mínima en grados centígrados (hora)
DESCASC
Temp. media en grados centígrados
DESCASC
Racha de viento máxima en m/sg (hora)
DESCASC
Velocidad máxima media en intervalos de 10 minutos(hora)
DESCASC
Precipitaciones diarias en mm
DESCASC
Precipitaciones de 00:00 a 06:00 en mm
DESCASC
Precipitaciones de 06:00 a 12:00 en mm
DESCASC
Precipitaciones de 12:00 a 18:00 en mm
DESCASC
Precipitaciones de 18:00 a 24:00 en mm
DESCASC
17-02-2019 20.6 (14:50) 8.9 (07:50) 14.8 15 (23:30) 6.11 (20:30) 0 0 0 0 0
16-02-2019 19.6 (14:10) 3 (08:00) 11.3 16.94 (23:50) 5.83 (23:50) 0 0 0 0 0
15-02-2019 20.5 (15:40) 7.2 (23:59) 13.8 10 (05:20) 4.44 (11:00) 0 0 0 0 0
14-02-2019 18.6 (14:40) 6.1 (00:00) 12.4 10.28 (06:30) 4.44 (00:30) 0 0 0 0 0
13-02-2019 17.5 (15:00) 1.6 (00:00) 9.6 8.33 (23:40) 4.44 (23:40) 0 0 0 0 0
12-02-2019 12.1 (13:50) 3.5 (00:00) 7.8 5.28 (15:50) 3.33 (15:50) 0.1 0.1 0 0 0
11-02-2019 9.9 (15:10) 5.3 (00:00) 7.6 5.56 (10:10) 2.22 (10:40) 3 0.2 0.7 2 0.1
10-02-2019 14.5 (00:10) 5.6 (00:00) 10 17.78 (08:10) 8.33 (05:00) 6 0 0.7 4.4 0.9
09-02-2019 16.3 (15:30) 8.4 (00:00) 12.3 18.06 (22:40) 7.5 (23:10) 0 0 0 0 0
08-02-2019 16.9 (15:00) 2.5 (00:00) 9.7 11.39 (10:40) 5.28 (11:20) 0 0 0 0 0
07-02-2019 11.5 (13:50) 4.1 (00:00) 7.8 6.67 (12:10) 2.78 (12:10) 0 0 0 0 0
06-02-2019 18.5 (16:00) 6.5 (00:00) 12.5 5.83 (15:50) 2.78 (07:40) 0 0 0 0 0
05-02-2019 13.6 (15:10) 6.9 (00:00) 10.3 5 (02:20) 1.94 (15:50) 0.1 0.1 0 0 0
04-02-2019 10.4 (15:20) 0.6 (00:00) 5.5 4.72 (21:40) 2.78 (04:10) 0.1 0 0.1 0 0
03-02-2019 6.4 (12:20) 2.4 (00:00) 4.4 10 (01:30) 3.61 (04:50) 6.6 0.1 2.6 2.3 1.6
02-02-2019 8.3 (14:30) 3.3 (00:00) 5.8 15.28 (20:40) 5 (09:50) 39 11 15.1 3.8 9.1
01-02-2019 11.2 (14:40) 4.6 (00:00) 7.9 13.06 (09:30) 4.44 (06:10) 6.9 2.6 0 3.4 0.9
31-01-2019 15.9 (16:30) 7.3 (00:00) 11.6 11.94 (13:10) 5.28 (18:00) 32.5 4.2 6.5 0.6 21.2
30-01-2019 10.3 (15:50) 4.5 (00:00) 7.4 14.44 (21:20) 5.28 (21:50) 19.5 9.7 8.5 0 1.3
29-01-2019 9.9 (15:50) 6.1 (00:00) 8 20.56 (19:10) 5.56 (19:10) 18.5 3.6 1.4 8.5 5
28-01-2019 10.7 (14:20) 6.5 (00:00) 8.6 11.67 (12:20) 4.44 (07:50) 29 7.2 11.7 3.2 6.9
27-01-2019 9.4 (05:40) 4.1 (00:00) 6.7 14.72 (13:10) 5.28 (13:10) 16.4 1.1 6.2 3.1 6
26-01-2019 13 (14:40) 4.8 (00:00) 8.9 3.61 (23:50) 1.67 (23:50) 0.2 0.1 0.1 0 0
25-01-2019 10.5 (15:10) 6 (00:00) 8.3 9.17 (04:20) 3.06 (09:00) 17.1 5.3 8 1.2 2.6
24-01-2019 7.3 (00:00) 4.9 (00:00) 6.1 8.61 (01:40) 3.61 (02:20) 36 18.1 9.9 3.6 4.4
23-01-2019 10.9 (07:20) 5.8 (00:00) 8.3 13.89 (07:20) 3.61 (07:00) 52.2 13.3 11.3 11.2 16.4
22-01-2019 6.8 (14:40) 1.8 (00:00) 4.3 9.17 (20:30) 4.72 (21:20) 21.8 0 3.2 11.3 7.3
21-01-2019 8.9 (16:00) 2.4 (00:00) 5.6 5.83 (12:40) 2.78 (22:20) 5.6 5.5 0.1 0 0
20-01-2019 10.4 (15:40) 5.7 (00:00) 8 8.89 (13:10) 2.78 (16:20) 11.6 0.1 2.7 5.1 3.7
19-01-2019 10.5 (14:30) 3.6 (00:00) 7 13.33 (16:10) 4.44 (16:10) 0.7 0.7 0 0 0

Gráficas

Temp. máximas Temp. mínimas Temp. medias Precipitaciones Rachas de viento máximas Velocidades máximas media en intervalos de 10 minutos

Datos horarios

Fecha y hora oficial Temperatura (ºC) Velocidad del viento (km/h) Dirección del viento Racha (km/h) Dirección de racha Precipitación (mm) Presión (hPa) Tendencia (hPa) Humedad (%)
2019-02-17 23:00:00 15.4 19 Este 46 Este 0 1003.5 0.2 33
2019-02-17 22:00:00 15.3 3 Sudoeste 46 Este 0 1003.6 0.3 31
2019-02-17 21:00:00 16.1 19 Este 47 Este 0 1003.3 0.3 30
2019-02-17 20:00:00 15.7 6 Sudeste 31 Sudeste 0 1003.3 0.2 30
2019-02-17 19:00:00 16.7 17 Sudeste 28 Sudeste 0 1003.3 0 29
2019-02-17 18:00:00 17.2 14 Sudeste 28 Este 0 1003 -0.9 29
2019-02-17 17:00:00 18.5 13 Este 31 Este 0 1003.1 -1.7 27
2019-02-17 16:00:00 19.6 5 Norte 39 Este 0 1003.3 -2.4 25
2019-02-17 15:00:00 20.4 2 Nordeste 25 Este 0 1003.9 -2.6 24
2019-02-17 14:00:00 19.1 9 Noroeste 33 Este 0 1004.8 -1.6 26
2019-02-17 13:00:00 19 10 Este 30 Sudeste 0 1005.7 -1.3 26
2019-02-17 12:00:00 18.3 4 Nordeste 33 Sudoeste 0 1006.5 -0.5 27
2019-02-17 11:00:00 16.4 9 Sudoeste 34 Sudoeste 0 1006.4 -0.4 27
2019-02-17 10:00:00 14.4 14 Sudoeste 39 Sudoeste 0 1007 0 30
2019-02-17 09:00:00 12.9 17 Sudoeste 40 Sudoeste 0 1007 0.1 31
2019-02-17 08:00:00 10.6 9 Sudoeste 36 Sudoeste 0 1006.8 0.2 36
2019-02-17 07:00:00 10.7 13 Sudoeste 26 Sudoeste 0 1007 0.4 35
2019-02-17 06:00:00 12.2 15 Sudoeste 35 Sudoeste 0 1006.9 0.4 33
2019-02-17 05:00:00 12.5 6 Sudoeste 26 Sudoeste 0 1006.6 -0.3 34
2019-02-17 04:00:00 13.1 11 Sudoeste 26 Sudoeste 0 1006.6 -0.5 34
2019-02-17 03:00:00 13.8 10 Sudoeste 27 Sudoeste 0 1006.5 -0.1 33
2019-02-17 02:00:00 14.9 5 Oeste 34 Este 0 1006.9 -0.2 32
2019-02-17 01:00:00 15.5 3 Sudeste 41 Este 0 1007.1 -0.2 31
2019-02-17 00:00:00 15.7 9 Este 61 Este 0 1006.6 -0.6 32
2019-02-16 23:00:00 15.6 16 Este 43 Este 0 1007.1 -0.3 33
2019-02-16 22:00:00 14.7 3 Noroeste 18 Oeste 0 1007.3 0.1 36
2019-02-16 21:00:00 15.4 6 Norte 21 Noroeste 0 1007.2 0.1 36
2019-02-16 20:00:00 14.5 0 Calma 22 Norte 0 1007.4 -0.2 38
2019-02-16 19:00:00 15.6 2 Este 34 Este 0 1007.2 -0.6 37
2019-02-16 18:00:00 15.9 8 Este 22 Este 0 1007.1 -1.4 38
2019-02-16 17:00:00 17.5 0 Calma 33 Nordeste 0 1007.6 -1.6 35
2019-02-16 16:00:00 18.3 12 Este 39 Sudeste 0 1007.8 -2.4 32
2019-02-16 15:00:00 19.2 8 Sudeste 44 Este 0 1008.5 -2.3 34
2019-02-16 14:00:00 19.3 8 Este 31 Este 0 1009.2 -2.2 36
2019-02-16 13:00:00 18.3 5 Noroeste 23 Oeste 0 1010.2 -1.6 40
2019-02-16 12:00:00 16.7 5 Oeste 23 Sudoeste 0 1010.8 -1.5 46
2019-02-16 11:00:00 11.1 8 Sudoeste 29 Sudoeste 0 1011.4 -0.6 65
2019-02-16 10:00:00 7.3 14 Sudoeste 31 Sudoeste 0 1011.8 -0.4 73
2019-02-16 09:00:00 3.9 12 Sudoeste 30 Sudoeste 0 1012.3 0.1 82
2019-02-16 08:00:00 3.1 16 Sudoeste 29 Sudoeste 0 1012 -0.2 82
2019-02-16 07:00:00 3.7 14 Sudoeste 31 Sudoeste 0 1012.2 -0.5 79
2019-02-16 06:00:00 3.9 15 Sudoeste 31 Sudoeste 0 1012.2 -0.7 78
2019-02-16 05:00:00 4.2 12 Sudoeste 22 Sudoeste 0 1012.2 -1 75
2019-02-16 04:00:00 4.7 9 Sudoeste 26 Sudoeste 0 1012.7 -0.3 73
2019-02-16 03:00:00 5.2 15 Sudoeste 25 Sudoeste 0 1012.9 -0.1 70
2019-02-16 02:00:00 5.7 10 Sudoeste 26 Sudoeste 0 1013.2 0.4 68
2019-02-16 01:00:00 6.3 10 Sudoeste 25 Sudoeste 0 1013 0.6 65
2019-02-16 00:00:00 7.2 7 Sudoeste 21 Sudoeste 0 1013 0.8 60
2019-02-15 23:00:00 7.9 7 Sudoeste 21 Sudoeste 0 1012.8 1 56
2019-02-15 22:00:00 9.3 6 Sudoeste 24 Sudoeste 0 1012.4 1.2 50
2019-02-15 21:00:00 11.1 7 Sur 22 Sudoeste 0 1012.2 1.4 45
2019-02-15 20:00:00 13.3 12 Sudoeste 23 Oeste 0 1011.8 1.2 39
2019-02-15 19:00:00 14.7 6 Sudoeste 13 Sudoeste 0 1011.2 0.6 39
2019-02-15 18:00:00 16.5 6 Sur 15 Sur 0 1010.8 0.1 39
2019-02-15 17:00:00 18.6 3 Sur 11 Este 0 1010.6 -0.8 36
2019-02-15 16:00:00 19.9 2 Este 14 Sudoeste 0 1010.6 -1.7 35
2019-02-15 15:00:00 20.1 6 Sudoeste 25 Sur 0 1010.7 -2 35
2019-02-15 14:00:00 19.2 7 Sudoeste 27 Sudoeste 0 1011.4 -1.4 38
2019-02-15 13:00:00 17.9 7 Sudoeste 30 Sudoeste 0 1012.3 -0.3 39
2019-02-15 12:00:00 16.3 9 Sudoeste 31 Sudoeste 0 1012.7 0.2 42
2019-02-15 11:00:00 13.5 16 Sudoeste 31 Sudoeste 0 1012.8 0.7 45
2019-02-15 10:00:00 11 15 Sudoeste 30 Sudoeste 0 1012.6 0.4 48
2019-02-15 09:00:00 10.4 12 Sudoeste 30 Sudoeste 0 1012.5 0.5 48
2019-02-15 08:00:00 9.6 9 Sudoeste 26 Sudoeste 0 1012.1 0.7 50
2019-02-15 07:00:00 10.1 7 Sur 20 Sudoeste 0 1012.2 0.7 48
2019-02-15 06:00:00 11.1 2 Oeste 36 Sur 0 1012 0 45
2019-02-15 05:00:00 11.4 9 Sur 27 Sudoeste 0 1011.4 -0.2 46
2019-02-15 04:00:00 10.4 8 Oeste 21 Sudoeste 0 1011.5 -0.2 46
2019-02-15 03:00:00 12 9 Sudoeste 21 Sudoeste 0 1012 0.4 43
2019-02-15 02:00:00 11.8 9 Sudoeste 32 Sudoeste 0 1011.6 -0.2 42
2019-02-15 01:00:00 12.7 7 Sudoeste 28 Sur 0 1011.7 -0.5 40
2019-02-15 00:00:00 13.9 8 Sur 37 Sur 0 1011.6 -0.4 38
2019-02-14 23:00:00 13.3 7 Sudoeste 24 Sur 0 1011.8 0 37
2019-02-14 22:00:00 14.2 0 Calma 35 Este 0 1012.2 0.5 35
2019-02-14 21:00:00 14.1 7 Sudoeste 27 Sudoeste 0 1012 0.5 33
2019-02-14 20:00:00 14.4 3 Oeste 21 Sudoeste 0 1011.8 0.7 34
2019-02-14 19:00:00 14.8 5 Nordeste 16 Nordeste 0 1011.7 0.3 34
2019-02-14 18:00:00 16.3 0 Calma 18 Este 0 1011.5 -0.2 32
2019-02-14 17:00:00 17.4 6 Nordeste 19 Nordeste 0 1011.1 -1.2 30
2019-02-14 16:00:00 18 0 Calma 21 Este 0 1011.4 -2.1 32
2019-02-14 15:00:00 18.3 7 Noroeste 21 Este 0 1011.7 -2.4 32
2019-02-14 14:00:00 17.9 5 Nordeste 26 Nordeste 0 1012.3 -2 33
2019-02-14 13:00:00 17.1 4 Sudoeste 29 Sudoeste 0 1013.5 -1 35
2019-02-14 12:00:00 16.3 0 Calma 32 Oeste 0 1014.1 -0.5 39
2019-02-14 11:00:00 15.1 5 Sur 29 Sudoeste 0 1014.3 0.1 40
2019-02-14 10:00:00 13.5 6 Sudoeste 30 Sudoeste 0 1014.5 0.4 46
2019-02-14 09:00:00 11.3 9 Sudoeste 24 Sur 0 1014.6 0.4 51
2019-02-14 08:00:00 10.7 9 Sudoeste 37 Sur 0 1014.2 0.1 54
2019-02-14 07:00:00 11 4 Oeste 37 Sudeste 0 1014.1 0 54
2019-02-14 06:00:00 9.8 9 Oeste 27 Sur 0 1014.2 -0.1 60
2019-02-14 05:00:00 8.6 10 Sudoeste 21 Sudoeste 0 1014.1 -0.5 66
2019-02-14 04:00:00 7.9 13 Sudoeste 26 Sudoeste 0 1014.1 -0.6 70
2019-02-14 03:00:00 6.8 11 Sudoeste 27 Sudoeste 0 1014.3 -0.6 75
2019-02-14 02:00:00 7.2 11 Sudoeste 24 Sudoeste 0 1014.6 -0.3 75
2019-02-14 01:00:00 6.9 13 Sudoeste 33 Sudoeste 0 1014.7 -0.4 78
2019-02-14 00:00:00 6.7 10 Sudoeste 30 Sudoeste 0 1014.9 0.1 79
2019-02-13 23:00:00 7.2 12 Sudoeste 25 Sudoeste 0 1014.9 0.2 78
2019-02-13 22:00:00 7.3 4 Sur 13 Sudoeste 0 1015.1 1.1 78
2019-02-13 21:00:00 6.8 0 Calma 5 Nordeste 0 1014.8 1.4 76
2019-02-13 20:00:00 8.2 0 Calma 5 Sudoeste 0 1014.7 1.6 71
2019-02-13 19:00:00 10.1 0 Calma 8 Norte 0 1014 0.7 62
2019-02-13 18:00:00 12.4 4 Nordeste 11 Norte 0 1013.4 -0.1 56
2019-02-13 17:00:00 15.4 3 Norte 8 Sudeste 0 1013.1 -1.1 50
2019-02-13 16:00:00 16.4 5 Sur 8 Sur 0 1013.3 -2 49
2019-02-13 15:00:00 17.2 2 Sudeste 7 Sudeste 0 1013.5 -2.4 47
2019-02-13 14:00:00 16.1 0 Calma 6 Sudeste 0 1014.2 -1.9 51
2019-02-13 13:00:00 12.4 0 Calma 9 Sudoeste 0 1015.3 -1 70
2019-02-13 12:00:00 8.6 3 Sudoeste 7 Sudoeste 0 1015.9 -0.6 98
2019-02-13 11:00:00 4.9 0 Calma -- -- 0 1016.1 0 98
2019-02-13 10:00:00 2.6 0 Calma -- -- 0 1016.3 0.2 98
2019-02-13 09:00:00 1.8 0 Calma 5 Sur 0 1016.5 0.2 98
2019-02-13 08:00:00 1.9 0 Calma 5 Sudeste 0 1016.1 -0.3 98
2019-02-13 07:00:00 2.3 2 Este 6 Este 0 1016.1 -0.5 97
2019-02-13 06:00:00 2.5 4 Sudeste 6 Sudeste 0 1016.3 -0.6 97
2019-02-13 05:00:00 2.8 0 Calma 10 Sudoeste 0 1016.4 -0.9 96
2019-02-13 04:00:00 2.5 0 Calma 8 Sur 0 1016.6 -1.1 96
2019-02-13 03:00:00 2.6 2 Sur 9 Sur 0 1016.9 -0.8 96
2019-02-13 02:00:00 3.1 2 Sudoeste 8 Sudoeste 0 1017.3 -0.7 95
2019-02-13 01:00:00 3.2 0 Calma 6 Este 0 1017.7 -0.4 94
2019-02-13 00:00:00 3.7 0 Calma 8 Sudoeste 0 1017.7 -0.1 93
2019-02-12 23:00:00 4 0 Calma 5 Oeste 0 1018 0.1 92
2019-02-12 22:00:00 4.6 0 Calma -- -- 0 1018.1 0.2 90
2019-02-12 21:00:00 5.4 0 Calma 4 Este 0 1017.8 0.5 87
2019-02-12 20:00:00 6.2 3 Este 7 Este 0 1017.9 0.3 82
2019-02-12 19:00:00 7.4 3 Este 7 Este 0 1017.9 0.2 76
2019-02-12 18:00:00 9.5 0 Calma 15 Norte 0 1017.3 -0.6 70
2019-02-12 17:00:00 10.3 8 Norte 18 Norte 0 1017.6 -0.9 68
2019-02-12 16:00:00 10.3 12 Norte 19 Norte 0 1017.7 -1.6 67
2019-02-12 15:00:00 11 9 Norte 18 Norte 0 1017.9 -2.2 62
2019-02-12 14:00:00 11.2 6 Norte 11 Norte 0 1018.5 -1.9 61
2019-02-12 13:00:00 10.8 0 Calma 5 Oeste 0 1019.3 -1.1 76
2019-02-12 12:00:00 8.4 0 Calma 8 Este 0 1020.1 -0.3 95
2019-02-12 11:00:00 6.3 0 Calma 6 Sudoeste 0 1020.4 0.5 97
2019-02-12 10:00:00 5.2 0 Calma 10 Este 0 1020.4 0.4 97
2019-02-12 09:00:00 4.4 4 Este 12 Este 0 1020.4 0.4 97
2019-02-12 08:00:00 4.7 0 Calma 9 Sudeste 0 1019.9 0.3 97
2019-02-12 07:00:00 4.8 4 Sudeste 9 Este 0 1020 0.5 97
2019-02-12 06:00:00 5.1 0 Calma 7 Sur 0 1020 0.3 97
2019-02-12 05:00:00 5.5 0 Calma -- -- 0 1019.6 -0.4 97
2019-02-12 04:00:00 5.6 0 Calma 9 Este 0 1019.5 -0.6 97
2019-02-12 03:00:00 5.8 0 Calma -- -- 0 1019.7 -0.6 97
2019-02-12 02:00:00 5.9 0 Calma -- -- 0.1 1020 -0.1 96
2019-02-12 01:00:00 5.8 0 Calma -- -- 0 1020.1 -0.1 96
2019-02-12 00:00:00 5.7 0 Calma 5 Oeste 0.1 1020.3 0.3 96
2019-02-11 23:00:00 6 2 Sudoeste 6 Sur 0 1020.1 0.6 95
2019-02-11 22:00:00 5.6 0 Calma -- -- 0 1020.2 1.2 94
2019-02-11 21:00:00 6.1 0 Calma -- -- 0 1020 1.4 93
2019-02-11 20:00:00 6.7 3 Sudoeste 8 Sudoeste 0 1019.5 1.1 91
2019-02-11 19:00:00 8 2 Sudoeste 6 Sur 0 1019 0.7 89
2019-02-11 18:00:00 8.7 0 Calma 9 Sudeste 0 1018.6 0.7 84
2019-02-11 17:00:00 8.8 2 Este 12 Noroeste 0.3 1018.4 0.6 84
2019-02-11 16:00:00 8.8 2 Noroeste 14 Noroeste 1 1018.3 0.1 84
2019-02-11 15:00:00 9.5 0 Calma 14 Oeste 0.3 1017.9 0 82
2019-02-11 14:00:00 9.7 0 Calma 7 Sudeste 0.1 1017.8 0.6 83
2019-02-11 13:00:00 9.2 0 Calma 15 Sudoeste 0.3 1018.2 1.7 84
2019-02-11 12:00:00 8.8 6 Sudoeste 17 Sudoeste 0 1017.9 1.8 84
2019-02-11 11:00:00 8.2 5 Sudoeste 20 Oeste 0 1017.2 2 89
2019-02-11 10:00:00 7.2 6 Sudoeste 17 Oeste 0 1016.5 2 96
2019-02-11 09:00:00 6.2 0 Calma 5 Sudeste 0.2 1016.1 2.2 96
2019-02-11 08:00:00 5.7 0 Calma 8 Norte 0.5 1015.2 1.5 94
2019-02-11 07:00:00 5.3 0 Calma 5 Norte 0 1014.5 0.9 93
2019-02-11 06:00:00 6.1 0 Calma 12 Oeste 0.1 1013.9 0.5 90
2019-02-11 05:00:00 6.7 0 Calma 9 Sudoeste 0 1013.7 0.6 89
2019-02-11 04:00:00 7.3 4 Sudoeste 13 Sudoeste 0 1013.6 1.2 92
2019-02-11 03:00:00 6.4 0 Calma 14 Sudoeste 0 1013.4 1.2 95
2019-02-11 02:00:00 6.2 0 Calma 10 Noroeste 0.1 1013.1 1.2 96
2019-02-11 01:00:00 5.7 0 Calma 6 Sudeste 0 1012.4 0.9 95
2019-02-11 00:00:00 5.7 0 Calma -- -- 0 1012.2 1.4 94
2019-02-10 23:00:00 6.7 0 Calma 5 Nordeste 0 1011.9 1.6 93
2019-02-10 22:00:00 7.4 3 Este 6 Sudeste 0.9 1011.5 2 91
2019-02-10 21:00:00 7.5 0 Calma 8 Este 0 1010.8 2 90
2019-02-10 20:00:00 7.9 0 Calma 5 Noroeste 0 1010.3 2.2 88
2019-02-10 19:00:00 8.5 2 Noroeste 17 Oeste 0 1009.5 1.9 84
2019-02-10 18:00:00 9 8 Oeste 23 Oeste 0.2 1008.8 2.1 83
2019-02-10 17:00:00 9.1 6 Sudoeste 16 Sudoeste 0.2 1008.1 2 86
2019-02-10 16:00:00 9 9 Oeste 23 Sudoeste 2.9 1007.6 2.2 89
2019-02-10 15:00:00 10.2 8 Oeste 18 Noroeste 0.3 1006.7 2 81
2019-02-10 14:00:00 10.4 7 Oeste 31 Oeste 0.4 1006.1 2.6 83
2019-02-10 13:00:00 10.1 4 Sudoeste 22 Sudoeste 0.4 1005.4 4.9 85
2019-02-10 12:00:00 10 8 Sudoeste 40 Oeste 0.3 1004.7 6.4 80
2019-02-10 11:00:00 11.3 14 Oeste 42 Oeste 0.4 1003.5 5.4 74
2019-02-10 10:00:00 13.9 15 Sur 54 Sur 0 1000.5 2.6 57
2019-02-10 09:00:00 13.1 17 Sudeste 64 Sudeste 0 998.3 0 60
2019-02-10 08:00:00 12.5 22 Sudeste 54 Sudeste 0 998.1 -0.1 60
2019-02-10 07:00:00 13 11 Sur 48 Sur 0 997.9 -1.6 55
2019-02-10 06:00:00 13.1 17 Sur 56 Sur 0 998.3 -2 53
2019-02-10 05:00:00 13 30 Sur 55 Sur 0 998.2 -1.9 52
2019-02-10 04:00:00 12.8 3 Sudoeste 50 Sur 0 999.5 -0.8 51
2019-02-10 03:00:00 13.1 17 Sur 51 Sur 0 1000.3 0.1 49
2019-02-10 02:00:00 13.4 11 Sur 40 Sur 0 1000.1 -0.5 48
2019-02-10 01:00:00 13.8 15 Sur 51 Sudoeste 0 1000.3 -0.7 48
2019-02-10 00:00:00 14.4 23 Sur 56 Sudoeste 0 1000.2 -0.8 47
2019-02-09 23:00:00 14.8 22 Sur 65 Sudoeste 0 1000.6 -0.6 47
2019-02-09 22:00:00 15.1 17 Sudoeste 64 Sudoeste 0 1001 -0.3 47
2019-02-09 21:00:00 15 7 Sudoeste 36 Sudeste 0 1001 -0.4 47
2019-02-09 20:00:00 14.6 6 Sudoeste 48 Sudoeste 0 1001.2 -0.6 47
2019-02-09 19:00:00 15 13 Sur 40 Sudoeste 0 1001.3 -1.7 46
2019-02-09 18:00:00 14.7 13 Oeste 44 Oeste 0 1001.4 -1.8 47
2019-02-09 17:00:00 15.2 11 Sudoeste 42 Sudoeste 0 1001.8 -2.4 46
2019-02-09 16:00:00 15.5 11 Sudoeste 37 Sudoeste 0 1003 -2.3 46
2019-02-09 15:00:00 15.4 15 Sudoeste 43 Oeste 0 1003.2 -3 49
2019-02-09 14:00:00 15 12 Sudoeste 31 Oeste 0 1004.2 -2.5 51
2019-02-09 13:00:00 15.2 10 Sur 31 Sur 0 1005.3 -1.6 53
2019-02-09 12:00:00 13.8 8 Sudoeste 37 Sur 0 1006.2 -0.4 56
2019-02-09 11:00:00 12.5 15 Sur 36 Sur 0 1006.7 0.5 60
2019-02-09 10:00:00 11.2 11 Sur 33 Sur 0 1006.9 1.1 63
2019-02-09 09:00:00 10.8 11 Sur 40 Sur 0 1006.6 0.8 66
2019-02-09 08:00:00 8.6 3 Oeste 15 Sudoeste 0 1006.2 0.6 70
2019-02-09 07:00:00 9.6 3 Sudeste 24 Sudeste 0 1005.8 -0.1 67
2019-02-09 06:00:00 10.5 0 Calma 25 Sudoeste 0 1005.8 0.2 64
2019-02-09 05:00:00 10.5 4 Sudoeste 23 Sudeste 0 1005.6 0.3 64
2019-02-09 04:00:00 11 4 Oeste 19 Sudoeste 0 1005.9 0.6 64
2019-02-09 03:00:00 11.1 5 Oeste 19 Sudoeste 0 1005.6 0.6 64
2019-02-09 02:00:00 10.9 8 Sudoeste 26 Sur 0 1005.3 0.6 66
2019-02-09 01:00:00 9.1 5 Sudoeste 22 Sudeste 0 1005.3 0.8 78
2019-02-09 00:00:00 8.8 0 Calma 24 Sudeste 0 1005 0.8 81
2019-02-08 23:00:00 7.5 2 Noroeste 13 Sudoeste 0 1004.7 0.3 90
2019-02-08 22:00:00 7.5 0 Calma 12 Noroeste 0 1004.5 0.3 90
2019-02-08 21:00:00 7.8 0 Calma 9 Este 0 1004.2 0.1 89
2019-02-08 20:00:00 7.9 0 Calma 5 Sudoeste 0 1004.4 1.7 86
2019-02-08 19:00:00 9.5 0 Calma 13 Nordeste 0 1004.2 1.6 82
2019-02-08 18:00:00 10.5 8 Nordeste 27 Norte 0 1004.1 1.1 78
2019-02-08 17:00:00 12.8 8 Norte 21 Norte 0 1002.7 -0.5 63
2019-02-08 16:00:00 16.6 6 Sur 30 Sudoeste 0 1002.6 -1.3 46
2019-02-08 15:00:00 16.9 6 Sudoeste 33 Sudoeste 0 1003 -1.7 45
2019-02-08 14:00:00 15.8 5 Sudoeste 33 Sudoeste 0 1003.2 -1.9 47
2019-02-08 13:00:00 15.1 13 Sur 37 Sur 0 1003.9 -1.3 48
2019-02-08 12:00:00 13.9 14 Sur 39 Sur 0 1004.7 -0.5 51
2019-02-08 11:00:00 12.9 14 Sur 41 Sur 0 1005.1 -0.2 55
2019-02-08 10:00:00 11.4 4 Sudoeste 35 Sudeste 0 1005.2 -0.8 64
2019-02-08 09:00:00 6.9 6 Sudoeste 28 Sudoeste 0 1005.2 -1.1 84
2019-02-08 08:00:00 3.5 16 Sudoeste 32 Sudoeste 0 1005.3 -1.6 96
2019-02-08 07:00:00 2.8 0 Calma 19 Sudoeste 0 1006 -1.7 96
2019-02-08 06:00:00 2.8 6 Sudoeste 19 Sudoeste 0 1006.3 -2.1 95
2019-02-08 05:00:00 2.9 5 Sudoeste 11 Sudoeste 0 1006.9 -2.2 95
2019-02-08 04:00:00 2.8 0 Calma 10 Sudoeste 0 1007.7 -1.8 94
2019-02-08 03:00:00 3.5 4 Sudoeste 10 Sudoeste 0 1008.4 -2 93
2019-02-08 02:00:00 3.9 2 Sur 16 Sur 0 1009.1 -1.3 93
2019-02-08 01:00:00 4.1 3 Sur 8 Sur 0 1009.5 -1.2 92
2019-02-08 00:00:00 4.1 0 Calma 9 Sur 0 1010.4 -0.5 90
2019-02-07 23:00:00 5 4 Sur 10 Sur 0 1010.4 -0.5 90
2019-02-07 22:00:00 5.3 0 Calma 6 Sur 0 1010.7 -0.1 87
2019-02-07 21:00:00 6.1 0 Calma 7 Oeste 0 1010.9 0.3 83
2019-02-07 20:00:00 7.4 0 Calma -- -- 0 1010.9 0.2 77
2019-02-07 19:00:00 9.2 0 Calma 5 Sur 0 1010.8 0 72
2019-02-07 18:00:00 10.5 3 Sur 6 Oeste 0 1010.6 -0.4 67
2019-02-07 17:00:00 10.9 3 Sudoeste 10 Oeste 0 1010.7 -0.1 66
2019-02-07 16:00:00 10.7 0 Calma 12 Noroeste 0 1010.8 -0.3 75
2019-02-07 15:00:00 10.3 9 Noroeste 18 Oeste 0 1011 0.6 74
2019-02-07 14:00:00 11.1 2 Sudoeste 10 Sudoeste 0 1010.8 0.3 75
2019-02-07 13:00:00 10.6 3 Sudoeste 24 Oeste 0 1011.1 0.8 78
2019-02-07 12:00:00 10.1 4 Oeste 18 Oeste 0 1010.4 0.6 89
2019-02-07 11:00:00 8.5 0 Calma 14 Sudoeste 0 1010.5 1.3 91
2019-02-07 10:00:00 7.6 4 Sudoeste 14 Sudoeste 0 1010.3 1.7 94
2019-02-07 09:00:00 7.1 5 Sudoeste 11 Sudoeste 0 1009.8 1.8 95
2019-02-07 08:00:00 6.7 0 Calma 8 Sudoeste 0 1009.2 1.2 95
2019-02-07 07:00:00 6.3 0 Calma 6 Nordeste 0 1008.6 0.2 95
2019-02-07 06:00:00 6.2 0 Calma 8 Sudoeste 0 1008 -0.4 94
2019-02-07 05:00:00 6.3 0 Calma 8 Sudoeste 0 1008 -0.7 93
2019-02-07 04:00:00 6.7 0 Calma 11 Sudoeste 0 1008.4 -0.3 93
2019-02-07 03:00:00 7.4 0 Calma 15 Sudoeste 0 1008.4 0.6 93
2019-02-07 02:00:00 7.4 0 Calma -- -- 0 1008.7 1.3 93
2019-02-07 01:00:00 7.2 0 Calma 6 Sur 0 1008.7 1.9 92
2019-02-07 00:00:00 7.3 0 Calma 4 Este 0 1007.8 0.9 90
2019-02-06 23:00:00 8 4 Sudoeste 11 Sudoeste 0 1007.4 0.6 89
2019-02-06 22:00:00 8.7 3 Sudoeste 11 Sudoeste 0 1006.8 0.5 87
2019-02-06 21:00:00 9.7 4 Sudoeste 9 Sudoeste 0 1006.9 0.9 84
2019-02-06 20:00:00 10.7 0 Calma 10 Sur 0 1006.8 0.6 81
2019-02-06 19:00:00 12.1 3 Noroeste 8 Noroeste 0 1006.3 0 75
2019-02-06 18:00:00 14.4 0 Calma 9 Sudoeste 0 1006 -0.8 65
2019-02-06 17:00:00 17.2 5 Sur 20 Sudoeste 0 1006.2 -1.7 49
2019-02-06 16:00:00 18.4 9 Sudoeste 21 Oeste 0 1006.3 -2.9 45
2019-02-06 15:00:00 18.2 2 Nordeste 12 Sudoeste 0 1006.8 -3.8 49
2019-02-06 14:00:00 16.7 0 Calma 13 Oeste 0 1007.9 -3.5 57
2019-02-06 13:00:00 14.9 6 Sudoeste 13 Sudoeste 0 1009.2 -3 66
2019-02-06 12:00:00 11.8 0 Calma -- -- 0 1010.6 -1.7 81
2019-02-06 11:00:00 9.7 0 Calma 12 Sur 0 1011.4 -0.9 94
2019-02-06 10:00:00 7.2 0 Calma 14 Sudoeste 0 1012.2 -0.3 96
2019-02-06 09:00:00 6.6 4 Sur 15 Sudoeste 0 1012.3 -0.5 96
2019-02-06 08:00:00 6.9 10 Sudoeste 18 Sudoeste 0 1012.3 -0.5 96
2019-02-06 07:00:00 7.4 9 Sudoeste 17 Sudoeste 0 1012.5 -0.9 96
2019-02-06 06:00:00 8.2 5 Sudoeste 12 Sur 0 1012.8 -1 96
2019-02-06 05:00:00 8.4 0 Calma -- -- 0 1012.8 -1.2 96
2019-02-06 04:00:00 8.4 0 Calma -- -- 0 1013.4 -1 95
2019-02-06 03:00:00 8.6 0 Calma -- -- 0 1013.8 -0.8 95
2019-02-06 02:00:00 8.7 0 Calma -- -- 0 1014 -0.8 94
2019-02-06 01:00:00 8.9 0 Calma -- -- 0 1014.4 -0.5 94
2019-02-06 00:00:00 9.2 0 Calma -- -- 0 1014.6 -0.2 92
2019-02-05 23:00:00 9.8 0 Calma -- -- 0 1014.8 -0.2 90
2019-02-05 22:00:00 10.3 0 Calma -- -- 0 1014.9 0.2 90
2019-02-05 21:00:00 10.7 0 Calma -- -- 0 1014.8 0.4 87
2019-02-05 20:00:00 11.1 0 Calma -- -- 0 1015 0.6 86
2019-02-05 19:00:00 11.6 0 Calma 7 Norte 0 1014.7 0.3 84
2019-02-05 18:00:00 12.3 0 Calma -- -- 0 1014.4 -0.1 83
2019-02-05 17:00:00 12.1 2 Nordeste 12 Norte 0 1014.4 -0.6 82
2019-02-05 16:00:00 13 5 Noroeste 11 Noroeste 0 1014.4 -1.1 77
2019-02-05 15:00:00 13.5 0 Calma 8 Sur 0 1014.5 -1.5 72
2019-02-05 14:00:00 12.6 0 Calma 6 Sudeste 0 1015 -0.9 76
2019-02-05 13:00:00 11.6 0 Calma 5 Sudoeste 0 1015.5 0 80
2019-02-05 12:00:00 10.3 0 Calma -- -- 0 1016 1.1 84
2019-02-05 11:00:00 9 0 Calma 6 Sudoeste 0 1015.9 1.4 88
2019-02-05 10:00:00 8.2 0 Calma 9 Sudoeste 0 1015.5 1.2 91
2019-02-05 09:00:00 7.7 3 Sur 13 Sudoeste 0 1014.9 0.6 91
2019-02-05 08:00:00 7.5 4 Sur 14 Sur 0 1014.5 0.5 91
2019-02-05 07:00:00 7.5 5 Sudoeste 13 Sudoeste 0 1014.3 0.1 92
2019-02-05 06:00:00 7.4 4 Sudoeste 10 Sudoeste 0 1014.3 0 93
2019-02-05 05:00:00 7.3 0 Calma 11 Sudoeste 0 1014 -0.5 93
2019-02-05 04:00:00 7.3 0 Calma 10 Oeste 0 1014.2 -0.3 93
2019-02-05 03:00:00 7.2 3 Sudoeste 18 Sudoeste 0.1 1014.3 -0.1 93
2019-02-05 02:00:00 7.1 0 Calma 11 Sur 0 1014.5 0.1 92
2019-02-05 01:00:00 7 0 Calma 12 Sudoeste 0 1014.5 0.2 91
2019-02-05 00:00:00 7.1 0 Calma 15 Sudoeste 0 1014.4 0.4 89
2019-02-04 23:00:00 7.2 2 Sur 12 Sudoeste 0 1014.4 0.7 87
2019-02-04 22:00:00 7.8 0 Calma 17 Sudoeste 0 1014.3 1 82
2019-02-04 21:00:00 7.6 0 Calma 9 Norte 0 1014 0.8 86
2019-02-04 20:00:00 7.8 2 Nordeste 10 Oeste 0 1013.7 0.5 88
2019-02-04 19:00:00 7.5 4 Noroeste 8 Noroeste 0 1013.3 0.7 89
2019-02-04 18:00:00 8.1 4 Norte 8 Nordeste 0 1013.2 0.6 85
2019-02-04 17:00:00 9 2 Norte 6 Noroeste 0 1013.2 0.1 72
2019-02-04 16:00:00 10.1 2 Sudeste 17 Sudoeste 0 1012.6 -1.1 60
2019-02-04 15:00:00 10.2 0 Calma 7 Sudoeste 0 1012.6 -1.4 63
2019-02-04 14:00:00 9.7 3 Sur 9 Sudoeste 0 1013.1 -1.3 66
2019-02-04 13:00:00 8.3 5 Este 11 Sur 0 1013.7 -0.8 72
2019-02-04 12:00:00 6.6 0 Calma -- -- 0 1014 -0.6 84
2019-02-04 11:00:00 4.7 0 Calma -- -- 0 1014.4 0 97
2019-02-04 10:00:00 2.5 0 Calma 7 Este 0.1 1014.5 -0.1 98
2019-02-04 09:00:00 0.8 0 Calma 10 Este 0 1014.6 -0.5 97
2019-02-04 08:00:00 0.7 0 Calma 6 Nordeste 0 1014.4 -1.8 97
2019-02-04 07:00:00 1.4 4 Este 7 Sudeste 0 1014.6 -2 97
2019-02-04 06:00:00 1.4 3 Este 8 Este 0 1015.1 -1.4 97
2019-02-04 05:00:00 2 3 Sudeste 13 Este 0 1016.2 -0.8 97
2019-02-04 04:00:00 2.3 6 Este 12 Este 0 1016.6 -0.3 97
2019-02-04 03:00:00 2.6 0 Calma 8 Sudeste 0 1016.5 -0.2 97
2019-02-04 02:00:00 3.1 0 Calma -- -- 0 1017 -0.1 97
2019-02-04 01:00:00 3.1 0 Calma -- -- 0 1016.9 0.1 96
2019-02-04 00:00:00 3.2 0 Calma 8 Sudeste 0 1016.7 -0.2 96
2019-02-03 23:00:00 3.3 0 Calma -- -- 0 1017.1 0.5 95
2019-02-03 22:00:00 3.7 0 Calma 7 Sudoeste 0.1 1016.8 1 95
2019-02-03 21:00:00 4.2 0 Calma 6 Oeste 0.4 1016.9 2.3 94
2019-02-03 20:00:00 4.1 0 Calma 9 Sudeste 0.8 1016.6 1.6 93
2019-02-03 19:00:00 4.3 3 Noroeste 7 Noroeste 0.3 1015.8 1.1 91
2019-02-03 18:00:00 5.1 0 Calma 5 Nordeste 0 1014.6 -0.4 87
2019-02-03 17:00:00 5.7 0 Calma 9 Este 0.4 1015 0.5 87
2019-02-03 16:00:00 5.7 3 Nordeste 12 Sudeste 0.2 1014.7 0 86
2019-02-03 15:00:00 4.8 5 Norte 18 Nordeste 1 1015 0.5 85
2019-02-03 14:00:00 5.1 4 Nordeste 30 Nordeste 0.7 1014.5 0 85
2019-02-03 13:00:00 6 8 Norte 22 Oeste 0 1014.7 1.1 76
2019-02-03 12:00:00 5.1 3 Oeste 28 Oeste 0.5 1014.5 2.3 82
2019-02-03 11:00:00 4.7 11 Noroeste 33 Norte 0.6 1014.5 3.2 78
2019-02-03 10:00:00 4.4 9 Noroeste 33 Noroeste 0.3 1013.6 2.8 77
2019-02-03 09:00:00 4.4 4 Oeste 28 Sudoeste 0.1 1012.2 2 78
2019-02-03 08:00:00 2.5 0 Calma 12 Sur 0 1011.3 2 85
2019-02-03 07:00:00 4.1 3 Sudoeste 23 Norte 1.1 1010.8 2 79
2019-02-03 06:00:00 5.1 0 Calma 15 Nordeste 0 1010.2 1.5 72
2019-02-03 05:00:00 5.4 9 Norte 33 Norte 0 1009.3 1.3 69
2019-02-03 04:00:00 6.1 2 Oeste 25 Noroeste 0 1008.8 2 61
2019-02-03 03:00:00 4.5 3 Sur 12 Oeste 0.1 1008.7 2.7 76
2019-02-03 02:00:00 4.7 11 Norte 36 Norte 0 1008 3.1 73
2019-02-03 01:00:00 4.4 3 Sur 33 Sudoeste 0 1006.8 2.4 74
2019-02-03 00:00:00 5.3 13 Noroeste 31 Oeste 1.4 1006 2 68
2019-02-02 23:00:00 3.5 5 Sudoeste 19 Oeste 1.6 1004.9 2 84
2019-02-02 22:00:00 3.4 13 Oeste 38 Oeste 0.6 1004.4 2.2 85
2019-02-02 21:00:00 3.9 5 Oeste 55 Noroeste 1.6 1004 3.7 82
2019-02-02 20:00:00 4.7 2 Sudoeste 28 Norte 0.8 1002.9 3.1 79
2019-02-02 19:00:00 5 9 Norte 28 Noroeste 3.1 1002.2 3.2 77
2019-02-02 18:00:00 5.4 7 Oeste 28 Norte 1.5 1000.3 1.6 74
2019-02-02 17:00:00 5.4 6 Sudoeste 18 Norte 1 999.8 1.7 81
2019-02-02 16:00:00 6.3 0 Calma 35 Noroeste 1.1 999 1.4 70
2019-02-02 15:00:00 7.7 8 Noroeste 41 Norte 0 998.7 2.1 55
2019-02-02 14:00:00 8 8 Noroeste 29 Noroeste 0 998.1 3.1 62
2019-02-02 13:00:00 6.7 2 Oeste 41 Noroeste 0.2 997.6 4.2 68
2019-02-02 12:00:00 5.9 6 Norte 41 Noroeste 0.6 996.6 5.9 76
2019-02-02 11:00:00 4.5 14 Noroeste 43 Oeste 2.6 995 5.8 84
2019-02-02 10:00:00 4.2 9 Noroeste 46 Norte 3.5 993.4 6.5 85
2019-02-02 09:00:00 6.4 9 Oeste 32 Noroeste 0 990.7 5.4 80
2019-02-02 08:00:00 5.5 8 Noroeste 41 Oeste 3.6 989.2 5.6 85
2019-02-02 07:00:00 6.2 13 Oeste 39 Noroeste 4.8 986.9 4.8 85
2019-02-02 06:00:00 5.9 5 Sudoeste 34 Oeste 6.5 985.3 4 90
2019-02-02 05:00:00 4.7 16 Sudoeste 35 Sudoeste 3.6 983.6 3.5 88
2019-02-02 04:00:00 5.2 14 Sudoeste 35 Sudoeste 0.8 982.1 3.1 85
2019-02-02 03:00:00 6 14 Sudoeste 31 Sudoeste 0.1 981.3 2.9 84
2019-02-02 02:00:00 5.9 14 Sudoeste 33 Sudoeste 0 980.1 2.2 83
2019-02-02 01:00:00 5.5 12 Sudoeste 32 Sudoeste 0 979 2.7 85
2019-02-02 00:00:00 5.3 8 Sudoeste 26 Sudoeste 0.2 978.4 3 88
2019-02-01 23:00:00 4.8 5 Sur 12 Sur 0.6 977.9 3.4 92
2019-02-01 22:00:00 4.7 0 Calma 13 Sudoeste 0 976.3 2.4 91
2019-02-01 21:00:00 4.6 0 Calma 15 Sudoeste 0 975.4 1.8 89
2019-02-01 20:00:00 4.8 7 Sudoeste 15 Sudoeste 0 974.5 3 88
2019-02-01 19:00:00 5.2 8 Sudoeste 21 Sudoeste 0.1 973.9 2.2 84
2019-02-01 18:00:00 5.4 13 Sudoeste 36 Sudoeste 1.8 973.6 2.8 80
2019-02-01 17:00:00 7.9 2 Noroeste 21 Sur 0.2 971.5 0 74
2019-02-01 16:00:00 7.7 8 Sudoeste 33 Sur 1.4 971.7 -0.3 73
2019-02-01 15:00:00 11 5 Sudoeste 24 Este 0 970.8 -2.3 54
2019-02-01 14:00:00 11.1 4 Sudoeste 35 Sur 0 971.5 -1.6 53
2019-02-01 13:00:00 10.9 8 Sudoeste 39 Sudoeste 0 972 -0.9 53
2019-02-01 12:00:00 10.5 8 Sur 36 Sudoeste 0 973.1 0.4 54
2019-02-01 11:00:00 10.7 10 Sur 39 Sur 0 973.1 1 53
2019-02-01 10:00:00 10.6 12 Sur 47 Sur 0 972.9 0.8 53
2019-02-01 09:00:00 10.1 14 Sur 42 Sudeste 0 972.7 -0.8 58
2019-02-01 08:00:00 10.1 12 Sur 44 Sur 0 972.1 -2.6 63
2019-02-01 07:00:00 8.6 4 Sur 37 Sur 0 972.1 -3.3 70
2019-02-01 06:00:00 7.2 9 Sur 23 Sur 0.1 973.5 -2.7 97
2019-02-01 05:00:00 7.6 0 Calma 5 Nordeste 0 974.7 -2.5 97
2019-02-01 04:00:00 8.1 0 Calma 3 Sudoeste 0.1 975.4 -2.5 97
2019-02-01 03:00:00 8.4 0 Calma 7 Sudoeste 2.4 976.2 -2.1 97
2019-02-01 02:00:00 8.3 0 Calma -- -- 0 977.2 -1.6 96
2019-02-01 01:00:00 8.5 0 Calma 7 Sudoeste 0 977.9 -1.5 95
2019-02-01 00:00:00 8.7 0 Calma -- -- 0.1 978.3 -1.1 94
2019-01-31 23:00:00 8.9 0 Calma 8 Nordeste 0.8 978.8 -0.5 94
2019-01-31 22:00:00 9.2 0 Calma 7 Este 1.7 979.4 0.7 91
2019-01-31 21:00:00 9.6 0 Calma 18 Sudoeste 3.6 979.4 2.9 89
2019-01-31 20:00:00 10 4 Oeste 16 Oeste 6.2 979.3 2.4 90
2019-01-31 19:00:00 10.8 5 Oeste 41 Oeste 8.8 978.7 1.4 88
2019-01-31 18:00:00 12 19 Norte 29 Norte 0.4 976.5 -1.8 89
2019-01-31 17:00:00 14.9 6 Sudoeste 31 Sur 0.2 976.9 -2.2 70
2019-01-31 16:00:00 15.7 5 Sudoeste 32 Oeste 0 977.3 -2.6 66
2019-01-31 15:00:00 15.3 10 Sur 35 Sur 0 978.3 -2.3 66
2019-01-31 14:00:00 14.9 9 Sur 43 Sudeste 0 979.1 -1.4 69
2019-01-31 13:00:00 14.3 8 Sur 33 Sur 0 979.9 -1.2 73
2019-01-31 12:00:00 12.8 4 Sur 26 Sur 0.1 980.6 -0.4 82
2019-01-31 11:00:00 11.1 7 Sudoeste 30 Sudoeste 0.5 980.5 -0.9 87
2019-01-31 10:00:00 10.3 6 Sudoeste 18 Sur 0.4 981.1 0.3 90
2019-01-31 09:00:00 9.8 7 Sur 20 Sudoeste 1.9 981 -0.4 90
2019-01-31 08:00:00 9.5 10 Sudoeste 24 Sudoeste 1.1 981.4 -0.2 89
2019-01-31 07:00:00 9.4 4 Sur 21 Sudoeste 2.5 980.8 -1.8 88
2019-01-31 06:00:00 9.6 9 Sudoeste 30 Sudoeste 0.9 981.4 -1.9 85
2019-01-31 05:00:00 9.6 10 Sur 30 Sur 0.6 981.6 -2.6 82
2019-01-31 04:00:00 8.7 4 Sur 22 Sur 0.8 982.6 -2.7 82
2019-01-31 03:00:00 8.5 5 Sur 39 Sudeste 0.5 983.3 -2.8 79
2019-01-31 02:00:00 8.6 12 Sur 38 Sur 0.8 984.2 -2.6 78
2019-01-31 01:00:00 8 10 Sur 31 Sudeste 0.6 985.3 -1.6 79
2019-01-31 00:00:00 7.7 9 Sur 32 Sur 0.6 986.1 -1.7 77
2019-01-30 23:00:00 7.7 14 Sudeste 40 Sudeste 0.7 986.8 -1.6 75
2019-01-30 22:00:00 8.5 19 Sur 52 Sur 0 986.9 -2 67
2019-01-30 21:00:00 8.9 9 Sur 37 Sur 0 987.8 -1.7 64
2019-01-30 20:00:00 10 14 Sur 44 Sudeste 0 988.4 -2.3 54
2019-01-30 19:00:00 10 15 Sur 33 Sur 0 988.9 -2.9 52
2019-01-30 18:00:00 9.4 3 Sur 24 Sudoeste 0 989.5 -3.5 55
2019-01-30 17:00:00 9.8 6 Sur 21 Sudoeste 0 990.7 -3.5 55
2019-01-30 16:00:00 10.1 0 Calma 20 Sur 0 991.8 -3.4 58
2019-01-30 15:00:00 9.8 7 Sudeste 14 Sur 0 993 -3.5 59
2019-01-30 14:00:00 9.7 4 Sudoeste 17 Sur 0 994.2 -2.5 66
2019-01-30 13:00:00 9.2 5 Sur 17 Sudoeste 0 995.2 -2 69
2019-01-30 12:00:00 7.3 6 Sudoeste 31 Sudoeste 0 996.5 -0.3 81
2019-01-30 11:00:00 5.7 12 Sudoeste 24 Sudoeste 0.8 996.7 0 88
2019-01-30 10:00:00 5 2 Sudoeste 19 Sudoeste 1 997.2 0.5 91
2019-01-30 09:00:00 4.6 10 Sudoeste 23 Sudoeste 2.6 996.8 -0.2 92
2019-01-30 08:00:00 4.8 0 Calma 13 Sudoeste 3 996.7 -0.5 91
2019-01-30 07:00:00 5 8 Sudoeste 17 Sur 1.1 996.7 -0.5 89
2019-01-30 06:00:00 4.8 9 Sudoeste 20 Sudoeste 4.7 997 -0.1 89
2019-01-30 05:00:00 5.2 3 Oeste 30 Sudoeste 2.8 997.2 -0.3 86
2019-01-30 04:00:00 5.5 6 Sudoeste 26 Sur 0.9 997.2 0.4 85
2019-01-30 03:00:00 6 12 Sudoeste 27 Sudoeste 0.1 997.1 0.2 82
2019-01-30 02:00:00 5.8 6 Oeste 21 Sudoeste 1.1 997.5 0.4 82
2019-01-30 01:00:00 6.3 9 Sudoeste 21 Sudoeste 0.1 996.8 -0.4 76
2019-01-30 00:00:00 6.7 5 Sur 36 Oeste 0.3 996.9 0.7 76
2019-01-29 23:00:00 6.5 6 Oeste 32 Sur 0.7 997.1 0.9 78
2019-01-29 22:00:00 6.4 11 Oeste 36 Noroeste 1.9 997.2 2.8 76
2019-01-29 21:00:00 7.9 8 Oeste 53 Oeste 0.3 996.2 2.4 76
2019-01-29 20:00:00 7.5 19 Oeste 74 Noroeste 1.3 996.2 2.9 78
2019-01-29 19:00:00 8.5 11 Oeste 33 Sudoeste 0.5 994.4 1.5 76
2019-01-29 18:00:00 8.5 6 Oeste 48 Noroeste 0.4 993.8 2.3 74
2019-01-29 17:00:00 9.3 12 Sudoeste 57 Sudoeste 1.2 993.3 1.8 75
2019-01-29 16:00:00 9.5 11 Oeste 42 Sudoeste 3.3 992.9 0.5 81
2019-01-29 15:00:00 8.7 10 Sur 35 Sur 2.1 991.5 -2.4 84
2019-01-29 14:00:00 8.8 10 Sur 37 Sur 1.4 991.5 -3.4 76
2019-01-29 13:00:00 8.8 12 Sur 36 Sudeste 0.1 992.4 -4 72
2019-01-29 12:00:00 8.5 10 Sur 27 Sur 0.1 993.9 -3.5 73
2019-01-29 11:00:00 7.3 2 Sudoeste 18 Sudoeste 0.4 994.9 -3.2 87
2019-01-29 10:00:00 6.7 0 Calma 15 Sudeste 0.7 996.4 -2.6 95
2019-01-29 09:00:00 6.2 2 Sudoeste 9 Sudoeste 0.2 997.4 -2.9 95
2019-01-29 08:00:00 6.2 0 Calma 8 Oeste 0 998.1 -2.8 95
2019-01-29 07:00:00 6.4 0 Calma 7 Sudoeste 0 999 -2.7 95
2019-01-29 06:00:00 6.5 0 Calma -- -- 0.1 1000.3 -2 95
2019-01-29 05:00:00 6.5 0 Calma 9 Sudoeste 0.7 1000.9 -1.6 94
2019-01-29 04:00:00 6.6 2 Oeste 7 Oeste 0.2 1001.7 -1.9 94
2019-01-29 03:00:00 6.6 0 Calma 16 Sudoeste 1.2 1002.3 -1.6 94
2019-01-29 02:00:00 6.5 0 Calma 10 Sudoeste 0.8 1002.5 -1.7 92
2019-01-29 01:00:00 6.7 0 Calma 6 Este 0.6 1003.6 -0.4 91
2019-01-29 00:00:00 6.8 0 Calma 18 Noroeste 0.6 1003.9 -0.1 85
2019-01-28 23:00:00 7.3 0 Calma 25 Noroeste 3 1004.2 0.4 85
2019-01-28 22:00:00 7.7 4 Sudoeste 13 Oeste 0.2 1004 0.2 87
2019-01-28 21:00:00 8.2 2 Sudoeste 17 Oeste 0.9 1004 0.6 80
2019-01-28 20:00:00 8.2 3 Oeste 23 Sudoeste 0.3 1003.8 1.7 80
2019-01-28 19:00:00 8 4 Sudoeste 33 Oeste 1.9 1003.8 2.2 82
2019-01-28 18:00:00 8.6 8 Oeste 35 Norte 0.9 1003.4 1.7 76
2019-01-28 17:00:00 9.8 6 Oeste 39 Oeste 0.2 1002.1 0.6 70
2019-01-28 16:00:00 9.7 12 Noroeste 30 Norte 0.3 1001.6 0.5 72
2019-01-28 15:00:00 9.7 7 Noroeste 40 Oeste 0 1001.7 0.6 70
2019-01-28 14:00:00 10.1 8 Sudoeste 28 Noroeste 0.4 1001.5 1.4 72
2019-01-28 13:00:00 9.4 5 Oeste 42 Sudoeste 1.4 1001.1 1.6 74
2019-01-28 12:00:00 9 10 Sudoeste 37 Noroeste 1.3 1001.1 2.2 79
2019-01-28 11:00:00 9.1 0 Calma 39 Noroeste 1.2 1000.1 1.7 80
2019-01-28 10:00:00 9.3 4 Oeste 33 Sudoeste 1.4 999.5 1.9 79
2019-01-28 09:00:00 8.9 9 Sudoeste 34 Sudoeste 3.4 998.9 0.5 85
2019-01-28 08:00:00 9 15 Oeste 42 Noroeste 3.8 998.4 -0.4 86
2019-01-28 07:00:00 9.7 10 Sudoeste 42 Sudoeste 0.6 997.6 -1.9 79
2019-01-28 06:00:00 9.5 10 Sudoeste 35 Noroeste 0.4 998.4 -2.3 83
2019-01-28 05:00:00 7.8 6 Sudoeste 23 Sur 2.1 998.8 -3.1 88
2019-01-28 04:00:00 7 12 Sudoeste 30 Sudoeste 0.9 999.5 -3.3 87
2019-01-28 03:00:00 6.8 13 Sudoeste 28 Sudoeste 0.6 1000.7 -2.3 85
2019-01-28 02:00:00 6.8 10 Sudoeste 36 Sur 0.1 1001.9 -2.4 84
2019-01-28 01:00:00 6.6 5 Sudoeste 29 Oeste 3.1 1002.8 -1.2 85
2019-01-28 00:00:00 6.9 2 Sudoeste 46 Oeste 1 1003 -0.8 82
2019-01-27 23:00:00 6.5 5 Oeste 24 Sudoeste 3.4 1004.3 1 87
2019-01-27 22:00:00 7.1 5 Noroeste 23 Noroeste 1.1 1004 0.4 82
2019-01-27 21:00:00 7.2 7 Sudoeste 38 Noroeste 0.5 1003.8 1 77
2019-01-27 20:00:00 8.4 4 Oeste 24 Oeste 0 1003.3 1.4 69
2019-01-27 19:00:00 8.1 7 Sudoeste 20 Sudoeste 0 1003.6 1.8 70
2019-01-27 18:00:00 8.2 4 Noroeste 33 Oeste 0.2 1002.8 1.3 71
2019-01-27 17:00:00 8.7 6 Oeste 23 Noroeste 0 1001.9 -0.2 70
2019-01-27 16:00:00 8.1 3 Noroeste 26 Sudoeste 0 1001.8 0.6 75
2019-01-27 15:00:00 7.4 8 Sudoeste 45 Noroeste 0.9 1001.5 1 78
2019-01-27 14:00:00 7.4 13 Oeste 53 Oeste 1.1 1002.1 2.6 79
2019-01-27 13:00:00 8.3 14 Oeste 38 Oeste 0.9 1001.2 2.4 77
2019-01-27 12:00:00 8.1 5 Sudoeste 30 Sudoeste 3.4 1000.5 1.8 83
2019-01-27 11:00:00 7.2 5 Noroeste 29 Sudoeste 0.9 999.5 1.7 81
2019-01-27 10:00:00 7.9 11 Sudoeste 42 Sudoeste 0.9 998.8 0.8 76
2019-01-27 09:00:00 7.9 9 Sudoeste 39 Sur 0.4 998.7 0.5 74
2019-01-27 08:00:00 8.3 9 Sur 36 Sudoeste 0.4 997.8 -0.4 73
2019-01-27 07:00:00 8.9 14 Sudoeste 48 Oeste 0.2 998 -0.2 70
2019-01-27 06:00:00 9.1 8 Sudoeste 42 Noroeste 0.1 998.2 -0.1 78
2019-01-27 05:00:00 9.3 15 Sudoeste 34 Sur 1 998.2 -0.2 90
2019-01-27 04:00:00 5.8 0 Calma 11 Noroeste 0 998.2 -1.1 97
2019-01-27 03:00:00 5 0 Calma 8 Sur 0 998.3 -1.7 97
2019-01-27 02:00:00 4.3 0 Calma 10 Este 0 998.4 -2.3 97
2019-01-27 01:00:00 5.1 0 Calma 9 Sudoeste 0 999.3 -1.9 96
2019-01-27 00:00:00 5.2 0 Calma 13 Sudoeste 0 1000 -1.5 96
2019-01-26 23:00:00 5.5 5 Sudoeste 12 Sudoeste 0 1000.7 -1.1 94
2019-01-26 22:00:00 5.5 0 Calma -- -- 0 1001.2 -0.6 93
2019-01-26 21:00:00 6.2 0 Calma -- -- 0 1001.5 -0.3 91
2019-01-26 20:00:00 7.4 0 Calma 6 Este 0 1001.8 0 88
2019-01-26 19:00:00 8.2 0 Calma 6 Este 0 1001.8 -0.5 82
2019-01-26 18:00:00 10.2 0 Calma 10 Norte 0 1001.8 -1.1 75
2019-01-26 17:00:00 11.9 0 Calma -- -- 0 1001.8 -2.2 72
2019-01-26 16:00:00 12.8 0 Calma -- -- 0 1002.3 -3.1 68
2019-01-26 15:00:00 12.5 0 Calma 9 Sudeste 0 1002.9 -3.7 68
2019-01-26 14:00:00 12.1 0 Calma 7 Este 0 1004 -3.2 70
2019-01-26 13:00:00 10.9 0 Calma 12 Sur 0 1005.4 -2.4 79
2019-01-26 12:00:00 10.1 0 Calma -- -- 0 1006.6 -1.4 97
2019-01-26 11:00:00 9 0 Calma -- -- 0 1007.2 -0.8 97
2019-01-26 10:00:00 8.3 0 Calma -- -- 0 1007.8 -0.1 97
2019-01-26 09:00:00 8 0 Calma -- -- 0 1008 -0.3 97
2019-01-26 08:00:00 7.9 0 Calma -- -- 0.1 1008 -0.7 97
2019-01-26 07:00:00 8.1 0 Calma -- -- 0 1007.9 -1.3 97
2019-01-26 06:00:00 8.1 0 Calma -- -- 0 1008.3 -1.1 97
2019-01-26 05:00:00 8.3 0 Calma -- -- 0 1008.7 -0.9 97
2019-01-26 04:00:00 8.3 0 Calma -- -- 0 1009.2 -0.8 97
2019-01-26 03:00:00 8.5 0 Calma -- -- 0 1009.4 -0.8 97
2019-01-26 02:00:00 8.5 0 Calma -- -- 0.1 1009.6 -0.6 97
2019-01-26 01:00:00 8.7 0 Calma -- -- 0 1010 0.1 96
2019-01-26 00:00:00 8.8 0 Calma -- -- 0 1010.2 0.3 96
2019-01-25 23:00:00 9 0 Calma -- -- 0.3 1010.2 0.9 95
2019-01-25 22:00:00 9 0 Calma 9 Sudeste 0.8 1009.9 0.8 94
2019-01-25 21:00:00 9.1 0 Calma 6 Sudeste 0.9 1009.9 0.9 94
2019-01-25 20:00:00 9.2 0 Calma 8 Sur 0.4 1009.3 0.8 92
2019-01-25 19:00:00 9.5 0 Calma 12 Oeste 0.2 1009.1 0.8 88
2019-01-25 18:00:00 10.1 3 Sudoeste 15 Oeste 0 1009 1 84
2019-01-25 17:00:00 10.2 4 Oeste 14 Noroeste 0 1008.5 0.9 85
2019-01-25 16:00:00 10.2 0 Calma 13 Oeste 0.1 1008.3 0.1 87
2019-01-25 15:00:00 10.4 7 Oeste 23 Oeste 0.1 1008 -0.3 85
2019-01-25 14:00:00 10 0 Calma 20 Noroeste 0.6 1007.6 -0.2 93
2019-01-25 13:00:00 10.1 4 Noroeste 28 Noroeste 0.4 1008.2 1 92
2019-01-25 12:00:00 10 0 Calma 18 Oeste 1 1008.3 2 93
2019-01-25 11:00:00 9.7 3 Oeste 22 Oeste 1.1 1007.8 2.5 94
2019-01-25 10:00:00 9.6 4 Oeste 18 Nordeste 0.2 1007.2 2.4 94
2019-01-25 09:00:00 9.2 11 Noroeste 25 Oeste 1.9 1006.3 2 94
2019-01-25 08:00:00 9.4 0 Calma 12 Noroeste 1.4 1005.3 1 94
2019-01-25 07:00:00 9.4 3 Oeste 18 Norte 2.4 1004.8 0.3 94
2019-01-25 06:00:00 9.5 0 Calma 19 Oeste 0.9 1004.3 0.3 94
2019-01-25 05:00:00 9.4 0 Calma 33 Oeste 1.1 1004.3 0.6 97
2019-01-25 04:00:00 9.2 3 Oeste 20 Norte 1.9 1004.5 0.7 98
2019-01-25 03:00:00 8.7 3 Oeste 24 Oeste 1 1004 0 98
2019-01-25 02:00:00 6.3 0 Calma 10 Noroeste 0.3 1003.7 -0.5 97
2019-01-25 01:00:00 6.1 0 Calma -- -- 0.1 1003.8 -0.4 97
2019-01-25 00:00:00 6 0 Calma -- -- 0.3 1004 0.1 97
2019-01-24 23:00:00 6 0 Calma -- -- 0.7 1004.2 1 97
2019-01-24 22:00:00 6 0 Calma -- -- 1.6 1004.2 1.6 97
2019-01-24 21:00:00 5.9 0 Calma -- -- 0.8 1003.9 1.6 97
2019-01-24 20:00:00 5.9 0 Calma -- -- 0.1 1003.2 1.5 97
2019-01-24 19:00:00 5.9 0 Calma -- -- 0.9 1002.6 1 97
2019-01-24 18:00:00 6.1 0 Calma -- -- 0.6 1002.3 0.9 97
2019-01-24 17:00:00 6.2 0 Calma -- -- 0.2 1001.7 0.3 96
2019-01-24 16:00:00 6.2 0 Calma -- -- 0.6 1001.6 0.4 96
2019-01-24 15:00:00 5.8 0 Calma -- -- 0.7 1001.4 0.2 96
2019-01-24 14:00:00 5.4 0 Calma -- -- 1.1 1001.4 1.1 96
2019-01-24 13:00:00 5.3 0 Calma -- -- 0.4 1001.2 1.7 96
2019-01-24 12:00:00 5.3 0 Calma -- -- 0.2 1001.2 2.5 96
2019-01-24 11:00:00 4.9 0 Calma 12 Nordeste 0.9 1000.3 2 96
2019-01-24 10:00:00 5.6 4 Norte 8 Norte 1.2 999.5 1.9 95
2019-01-24 09:00:00 5.9 3 Nordeste 9 Este 2.7 998.7 1 95
2019-01-24 08:00:00 5.9 5 Este 13 Sudeste 2.7 998.3 0.9 94
2019-01-24 07:00:00 6 3 Sudeste 10 Oeste 2.2 997.6 0.7 94
2019-01-24 06:00:00 6 0 Calma 18 Oeste 3.3 997.7 0.8 93
2019-01-24 05:00:00 6 0 Calma 12 Noroeste 2.4 997.4 0.6 92
2019-01-24 04:00:00 6.2 3 Norte 15 Noroeste 2.1 996.9 0.6 91
2019-01-24 03:00:00 6.1 3 Norte 29 Norte 3.1 996.9 0.9 89
2019-01-24 02:00:00 6.8 7 Norte 31 Norte 3.5 996.8 1.1 88
2019-01-24 01:00:00 6.7 3 Norte 25 Norte 3.7 996.3 1.4 88
2019-01-24 00:00:00 7.3 6 Norte 27 Noroeste 2.4 996 1.2 87
2019-01-23 23:00:00 7.6 3 Oeste 35 Noroeste 5 995.7 2.1 87
2019-01-23 22:00:00 7.8 5 Oeste 46 Noroeste 4.8 994.9 1 85
2019-01-23 21:00:00 8.3 3 Sudoeste 35 Oeste 2.3 994.8 1.6 85
2019-01-23 20:00:00 8.4 6 Oeste 32 Noroeste 0.5 993.6 0.4 84
2019-01-23 19:00:00 8.4 9 Noroeste 31 Noroeste 1.4 993.9 0.9 85
2019-01-23 18:00:00 8.4 2 Sudoeste 31 Noroeste 0.5 993.2 -0.1 84
2019-01-23 17:00:00 8.5 3 Noroeste 25 Noroeste 0.9 993.2 -0.2 85
2019-01-23 16:00:00 8.2 6 Sudoeste 26 Sudoeste 0.6 993 0 85
2019-01-23 15:00:00 8 5 Noroeste 35 Oeste 2.2 993.3 1 86
2019-01-23 14:00:00 8.3 6 Oeste 33 Noroeste 3.3 993.4 1.3 85
2019-01-23 13:00:00 8.7 6 Noroeste 35 Noroeste 3.7 993 1.6 85
2019-01-23 12:00:00 9.3 9 Sudoeste 27 Oeste 1.6 992.3 1.5 82
2019-01-23 11:00:00 9 9 Oeste 31 Noroeste 2.9 992.1 2.6 85
2019-01-23 10:00:00 9.1 5 Oeste 45 Norte 1.3 991.4 2.8 85
2019-01-23 09:00:00 9.5 10 Oeste 35 Oeste 1.9 990.8 2.4 83
2019-01-23 08:00:00 10.3 8 Oeste 50 Sudoeste 0.7 989.5 0.6 81
2019-01-23 07:00:00 10.6 13 Sudoeste 37 Sudoeste 2.9 988.6 -2 87
2019-01-23 06:00:00 7.3 9 Sudoeste 28 Sur 3.8 988.4 -4 94
2019-01-23 05:00:00 6.6 12 Sudoeste 27 Sur 2.6 988.9 -4.2 94
2019-01-23 04:00:00 5.9 9 Sudoeste 21 Sudoeste 3.5 990.6 -3.2 94
2019-01-23 03:00:00 6.3 10 Sudoeste 26 Sudoeste 2.4 992.4 -2.2 92
2019-01-23 02:00:00 6.4 10 Sudoeste 23 Sudoeste 0.6 993.1 -1.7 92
2019-01-23 01:00:00 6.4 12 Sudoeste 25 Sudoeste 0.4 993.8 -1.8 92
2019-01-23 00:00:00 6.1 8 Sudoeste 27 Sudoeste 0.9 994.6 -1.6 91
2019-01-22 23:00:00 6 13 Sudoeste 31 Sudoeste 0.5 994.8 -2.1 88
2019-01-22 22:00:00 5.4 7 Sudoeste 33 Sudoeste 1 995.6 -1.7 87
2019-01-22 21:00:00 5.1 15 Sudoeste 33 Sudoeste 2.2 996.2 -1.4 87
2019-01-22 20:00:00 5.4 11 Sur 27 Sudoeste 2.2 996.9 -1.1 88
2019-01-22 19:00:00 6 8 Sudoeste 27 Sudoeste 0.5 997.3 -1.1 88
2019-01-22 18:00:00 6.2 11 Sudoeste 28 Sudoeste 0.3 997.6 -1.3 86
2019-01-22 17:00:00 6.6 8 Sudoeste 24 Sudoeste 0.1 998 -1.1 85
2019-01-22 16:00:00 6.4 8 Sudoeste 20 Sudoeste 0.6 998.4 -0.9 89
2019-01-22 15:00:00 6 5 Sudoeste 23 Sudoeste 2.4 998.9 -1.1 88
2019-01-22 14:00:00 6.3 4 Sudoeste 21 Sudoeste 5.2 999.1 -1.4 90
2019-01-22 13:00:00 6 10 Sudoeste 26 Sudoeste 2.7 999.3 -1.1 88
2019-01-22 12:00:00 6 14 Sudoeste 31 Sudoeste 2.6 1000 -1.5 88
2019-01-22 11:00:00 5.7 7 Sudoeste 19 Sudoeste 0.5 1000.5 -1.5 90
2019-01-22 10:00:00 4.8 8 Sudoeste 17 Sudoeste 0 1000.4 -2.4 91
2019-01-22 09:00:00 4.1 5 Sudoeste 20 Sudoeste 0 1001.5 -2.3 93
2019-01-22 08:00:00 3.8 10 Sudoeste 22 Sudoeste 0 1002 -2.7 94
2019-01-22 07:00:00 3.1 6 Sudoeste 15 Sudoeste 0.1 1002.8 -3.1 95
2019-01-22 06:00:00 2.6 0 Calma 12 Sudoeste 0 1003.8 -2.8 95
2019-01-22 05:00:00 2.1 0 Calma -- -- 0 1004.7 -3 94
2019-01-22 04:00:00 1.9 0 Calma -- -- 0 1005.9 -2.5 94
2019-01-22 03:00:00 2 0 Calma 11 Sudoeste 0 1006.6 -2.1 94
2019-01-22 02:00:00 2.1 4 Sudoeste 15 Sudoeste 0 1007.7 -1 93
2019-01-22 01:00:00 2.4 0 Calma 12 Sudoeste 0 1008.4 -1.1 92
2019-01-22 00:00:00 2.6 0 Calma 11 Oeste 0 1008.7 -1.2 91
2019-01-21 23:00:00 3.1 4 Sudoeste 17 Sudoeste 0 1008.7 -0.9 89
2019-01-21 22:00:00 3.9 5 Sudoeste 13 Sudoeste 0 1009.5 0.1 87
2019-01-21 21:00:00 4.3 5 Sudoeste 13 Sudoeste 0 1009.9 0.5 84
2019-01-21 20:00:00 4.7 4 Sudoeste 10 Sudoeste 0 1009.6 0.6 80
2019-01-21 19:00:00 5.4 3 Sudoeste 9 Oeste 0 1009.4 0.4 74
2019-01-21 18:00:00 6.8 0 Calma 15 Oeste 0 1009.4 0.2 67
2019-01-21 17:00:00 7.7 5 Oeste 18 Noroeste 0 1009 -0.3 64
2019-01-21 16:00:00 8.7 7 Noroeste 18 Oeste 0 1009 -0.9 62
2019-01-21 15:00:00 7.8 7 Oeste 18 Oeste 0 1009.2 -0.8 70
2019-01-21 14:00:00 7.5 4 Oeste 12 Oeste 0 1009.3 -0.3 76
2019-01-21 13:00:00 6.9 3 Oeste 21 Oeste 0 1009.9 1.2 77
2019-01-21 12:00:00 7.6 8 Oeste 18 Oeste 0 1010 2 73
2019-01-21 11:00:00 7.2 4 Oeste 13 Oeste 0 1009.6 2.1 76
2019-01-21 10:00:00 6.7 0 Calma 10 Oeste 0 1008.7 1.6 83
2019-01-21 09:00:00 6.6 4 Oeste 15 Oeste 0 1008 1.3 86
2019-01-21 08:00:00 6.5 0 Calma 8 Noroeste 0 1007.5 1.3 87
2019-01-21 07:00:00 6.5 0 Calma 15 Noroeste 0.1 1007.1 0.8 88
2019-01-21 06:00:00 6.7 0 Calma 10 Este 0.3 1006.7 0.8 94
2019-01-21 05:00:00 6.3 2 Sudoeste 11 Oeste 0.8 1006.2 0.2 95
2019-01-21 04:00:00 6 5 Sudoeste 14 Oeste 0.3 1006.3 0.2 95
2019-01-21 03:00:00 5.9 2 Sudoeste 14 Sudoeste 0.8 1005.9 0.4 94
2019-01-21 02:00:00 5.9 0 Calma -- -- 0.5 1006 1 94
2019-01-21 01:00:00 6.1 0 Calma 12 Sur 2.8 1006.1 1.3 92
2019-01-21 00:00:00 6.2 4 Sudeste 27 Noroeste 2.3 1005.5 1.3 91
2019-01-20 23:00:00 6.7 0 Calma 8 Noroeste 0.1 1005 1.2 88
2019-01-20 22:00:00 7.8 5 Noroeste 11 Sudoeste 1.2 1004.8 1.6 85
2019-01-20 21:00:00 7.7 5 Sudoeste 8 Sudoeste 0 1004.2 1.7 83
2019-01-20 20:00:00 8.2 6 Sudoeste 18 Sur 0.1 1003.8 1.8 82
2019-01-20 19:00:00 8.6 3 Sudoeste 12 Sudoeste 0 1003.2 1.9 82
2019-01-20 18:00:00 8.4 4 Sudoeste 18 Oeste 0.8 1002.5 1.3 83
2019-01-20 17:00:00 8.7 4 Sudoeste 24 Oeste 0 1002 0.8 79
2019-01-20 16:00:00 10.1 8 Oeste 17 Oeste 0 1001.3 0.6 75
2019-01-20 15:00:00 9.2 4 Oeste 11 Oeste 0 1001.2 0.3 85
2019-01-20 14:00:00 8.1 4 Sudeste 32 Nordeste 3.7 1001.2 1 88
2019-01-20 13:00:00 9.3 0 Calma 16 Sudeste 0.6 1000.7 1.3 84
2019-01-20 12:00:00 8.2 5 Oeste 11 Noroeste 0.1 1000.9 2.2 95
2019-01-20 11:00:00 7.2 0 Calma 6 Sur 0.1 1000.2 1.8 95
2019-01-20 10:00:00 6.3 0 Calma 9 Nordeste 0.3 999.4 1.9 95
2019-01-20 09:00:00 5.8 0 Calma 7 Este 0.2 998.7 1.6 94
2019-01-20 08:00:00 6.3 3 Nordeste 10 Sudoeste 0.5 998.4 1.8 93
2019-01-20 07:00:00 6.5 0 Calma 10 Sudoeste 1.5 997.5 0.9 91
2019-01-20 06:00:00 6.6 0 Calma 5 Oeste 0.1 997.1 1.1 88
2019-01-20 05:00:00 6.8 0 Calma 9 Sudoeste 0 996.6 1.3 87
2019-01-20 04:00:00 6.9 0 Calma 8 Sudoeste 0 996.6 1.6 86
2019-01-20 03:00:00 7 2 Sudoeste 9 Sudoeste 0 996 1.7 83
2019-01-20 02:00:00 7.2 0 Calma 11 Sudoeste 0 995.3 1.5 80
2019-01-20 01:00:00 7.7 4 Sudoeste 26 Sur 0 995 1.5 74
2019-01-20 00:00:00 7.9 4 Sur 28 Sudeste 0 994.3 1.1 73
2019-01-19 23:00:00 8.4 5 Sur 37 Sur 0 993.8 0.6 70
2019-01-19 22:00:00 8.4 11 Sur 34 Sur 0 993.5 0 70
2019-01-19 21:00:00 8.7 7 Sudoeste 24 Sudoeste 0 993.2 -0.6 67
2019-01-19 20:00:00 8.6 5 Sudoeste 18 Oeste 0 993.2 -1 67
2019-01-19 19:00:00 8.7 9 Sudoeste 27 Oeste 0 993.5 -1.2 66
2019-01-19 18:00:00 9 13 Sudoeste 36 Oeste 0 993.8 -1.5 63
2019-01-19 17:00:00 9.4 11 Sudoeste 48 Sur 0 994.2 -2.3 61
2019-01-19 16:00:00 9.9 10 Sur 39 Sur 0 994.7 -3.1 60
2019-01-19 15:00:00 9.9 4 Oeste 26 Sudoeste 0 995.3 -3.7 60
2019-01-19 14:00:00 10.1 6 Sur 34 Sudeste 0 996.5 -3.4 61
2019-01-19 13:00:00 9.8 8 Sur 28 Sur 0 997.8 -2.3 63
2019-01-19 12:00:00 9.5 14 Sur 27 Sur 0 999 -1.4 64
2019-01-19 11:00:00 8.5 9 Sur 29 Sur 0 999.9 -0.7 70
2019-01-19 10:00:00 5.4 6 Oeste 17 Sudoeste 0 1000.1 -0.2 89
2019-01-19 09:00:00 4 6 Oeste 17 Oeste 0 1000.4 0 91
2019-01-19 08:00:00 4 9 Sudoeste 17 Sudoeste 0 1000.6 -0.1 90
2019-01-19 07:00:00 4.7 5 Oeste 18 Sudoeste 0 1000.3 -1 89
2019-01-19 06:00:00 5 6 Oeste 17 Sudoeste 0 1000.4 -0.9 89
2019-01-19 05:00:00 5.4 4 Sudoeste 19 Sudoeste 0 1000.7 -0.8 88
2019-01-19 04:00:00 5.9 0 Calma 15 Sudoeste 0.2 1001.3 -0.8 88
2019-01-19 03:00:00 5.9 8 Sudoeste 14 Sudoeste 0 1001.3 -0.9 88
2019-01-19 02:00:00 5.8 3 Sudoeste 13 Oeste 0.3 1001.5 -0.4 88
2019-01-19 01:00:00 6 4 Norte 9 Nordeste 0.2 1002.1 0.5 86
2019-01-19 00:00:00 5.9 7 Sudoeste 21 Sudoeste 0.4 1002.2 0.7 84